sensor_id;sensor_type;location;lat;lon;timestamp;P1;durP1;ratioP1;P2;durP2;ratioP2
53642;SDS011;39546;45.534;12.048;2023-05-10T00:01:20;5.85;;;2.50;;
53642;SDS011;39546;45.534;12.048;2023-05-10T00:07:23;6.15;;;2.58;;
53642;SDS011;39546;45.534;12.048;2023-05-10T00:13:25;2.47;;;1.70;;
53642;SDS011;39546;45.534;12.048;2023-05-10T00:19:27;2.83;;;1.98;;
53642;SDS011;39546;45.534;12.048;2023-05-10T00:25:29;4.53;;;2.50;;
53642;SDS011;39546;45.534;12.048;2023-05-10T00:31:31;4.25;;;2.15;;
53642;SDS011;39546;45.534;12.048;2023-05-10T00:37:34;2.75;;;1.98;;
53642;SDS011;39546;45.534;12.048;2023-05-10T00:43:36;3.00;;;2.08;;
53642;SDS011;39546;45.534;12.048;2023-05-10T00:49:39;2.65;;;1.70;;
53642;SDS011;39546;45.534;12.048;2023-05-10T00:55:41;4.37;;;2.25;;
53642;SDS011;39546;45.534;12.048;2023-05-10T01:01:44;4.07;;;1.87;;
53642;SDS011;39546;45.534;12.048;2023-05-10T01:07:47;1.60;;;1.48;;
53642;SDS011;39546;45.534;12.048;2023-05-10T01:13:51;2.12;;;1.45;;
53642;SDS011;39546;45.534;12.048;2023-05-10T01:19:57;2.57;;;1.73;;
53642;SDS011;39546;45.534;12.048;2023-05-10T01:32:20;2.90;;;1.98;;
53642;SDS011;39546;45.534;12.048;2023-05-10T01:44:52;1.98;;;1.50;;
53642;SDS011;39546;45.534;12.048;2023-05-10T01:51:01;1.73;;;1.30;;
53642;SDS011;39546;45.534;12.048;2023-05-10T01:57:05;1.20;;;0.95;;
53642;SDS011;39546;45.534;12.048;2023-05-10T02:03:10;1.98;;;1.20;;
53642;SDS011;39546;45.534;12.048;2023-05-10T02:09:13;2.30;;;1.40;;
53642;SDS011;39546;45.534;12.048;2023-05-10T02:15:20;1.58;;;1.33;;
53642;SDS011;39546;45.534;12.048;2023-05-10T02:21:24;2.97;;;1.35;;
53642;SDS011;39546;45.534;12.048;2023-05-10T02:27:27;1.33;;;1.23;;
53642;SDS011;39546;45.534;12.048;2023-05-10T02:33:30;1.45;;;1.33;;
53642;SDS011;39546;45.534;12.048;2023-05-10T02:39:33;1.30;;;1.20;;
53642;SDS011;39546;45.534;12.048;2023-05-10T02:45:38;3.12;;;1.60;;
53642;SDS011;39546;45.534;12.048;2023-05-10T02:51:42;4.20;;;1.30;;
53642;SDS011;39546;45.534;12.048;2023-05-10T02:57:51;2.95;;;1.75;;
53642;SDS011;39546;45.534;12.048;2023-05-10T03:03:58;1.87;;;1.40;;
53642;SDS011;39546;45.534;12.048;2023-05-10T03:10:00;2.40;;;1.95;;
53642;SDS011;39546;45.534;12.048;2023-05-10T03:16:12;3.28;;;1.85;;
53642;SDS011;39546;45.534;12.048;2023-05-10T03:22:21;1.95;;;1.40;;
53642;SDS011;39546;45.534;12.048;2023-05-10T03:28:43;2.28;;;1.77;;
53642;SDS011;39546;45.534;12.048;2023-05-10T03:34:45;3.53;;;1.90;;
53642;SDS011;39546;45.534;12.048;2023-05-10T03:40:47;1.95;;;1.40;;
53642;SDS011;39546;45.534;12.048;2023-05-10T03:46:49;2.45;;;1.60;;
53642;SDS011;39546;45.534;12.048;2023-05-10T03:52:52;2.72;;;1.58;;
53642;SDS011;39546;45.534;12.048;2023-05-10T03:58:54;1.75;;;1.15;;
53642;SDS011;39546;45.534;12.048;2023-05-10T04:04:56;1.42;;;1.33;;
53642;SDS011;39546;45.534;12.048;2023-05-10T04:11:05;2.65;;;1.60;;
53642;SDS011;39546;45.534;12.048;2023-05-10T04:17:08;1.90;;;1.73;;
53642;SDS011;39546;45.534;12.048;2023-05-10T04:23:11;3.05;;;1.90;;
53642;SDS011;39546;45.534;12.048;2023-05-10T04:29:16;3.17;;;1.35;;
53642;SDS011;39546;45.534;12.048;2023-05-10T04:35:18;1.90;;;1.30;;
53642;SDS011;39546;45.534;12.048;2023-05-10T04:41:20;5.35;;;2.50;;
53642;SDS011;39546;45.534;12.048;2023-05-10T04:47:22;3.50;;;2.00;;
53642;SDS011;39546;45.534;12.048;2023-05-10T04:53:39;1.98;;;1.52;;
53642;SDS011;39546;45.534;12.048;2023-05-10T04:59:41;1.73;;;1.50;;
53642;SDS011;39546;45.534;12.048;2023-05-10T05:05:44;1.50;;;1.30;;
53642;SDS011;39546;45.534;12.048;2023-05-10T05:11:53;1.98;;;1.70;;
53642;SDS011;39546;45.534;12.048;2023-05-10T05:17:57;2.58;;;1.75;;
53642;SDS011;39546;45.534;12.048;2023-05-10T05:23:59;5.75;;;2.15;;
53642;SDS011;39546;45.534;12.048;2023-05-10T05:30:10;1.50;;;1.30;;
53642;SDS011;39546;45.534;12.048;2023-05-10T05:36:12;2.45;;;1.73;;
53642;SDS011;39546;45.534;12.048;2023-05-10T05:42:14;3.10;;;1.85;;
53642;SDS011;39546;45.534;12.048;2023-05-10T05:48:17;3.25;;;2.17;;
53642;SDS011;39546;45.534;12.048;2023-05-10T05:54:19;2.55;;;1.83;;
53642;SDS011;39546;45.534;12.048;2023-05-10T06:00:21;1.65;;;1.30;;
53642;SDS011;39546;45.534;12.048;2023-05-10T06:12:52;1.90;;;1.70;;
53642;SDS011;39546;45.534;12.048;2023-05-10T06:19:00;2.60;;;1.85;;
53642;SDS011;39546;45.534;12.048;2023-05-10T06:25:05;2.03;;;1.50;;
53642;SDS011;39546;45.534;12.048;2023-05-10T06:31:07;1.70;;;1.60;;
53642;SDS011;39546;45.534;12.048;2023-05-10T06:37:14;3.00;;;2.00;;
53642;SDS011;39546;45.534;12.048;2023-05-10T06:43:17;1.92;;;1.73;;
53642;SDS011;39546;45.534;12.048;2023-05-10T06:49:19;2.53;;;1.75;;
53642;SDS011;39546;45.534;12.048;2023-05-10T06:55:21;2.85;;;1.52;;
53642;SDS011;39546;45.534;12.048;2023-05-10T07:01:23;2.15;;;1.37;;
53642;SDS011;39546;45.534;12.048;2023-05-10T07:07:25;3.58;;;2.40;;
53642;SDS011;39546;45.534;12.048;2023-05-10T07:13:26;3.03;;;1.75;;
53642;SDS011;39546;45.534;12.048;2023-05-10T07:19:28;3.12;;;2.35;;
53642;SDS011;39546;45.534;12.048;2023-05-10T07:25:31;3.67;;;2.58;;
53642;SDS011;39546;45.534;12.048;2023-05-10T07:31:33;3.53;;;2.80;;
53642;SDS011;39546;45.534;12.048;2023-05-10T07:37:35;3.97;;;2.47;;
53642;SDS011;39546;45.534;12.048;2023-05-10T07:43:37;2.60;;;2.05;;
53642;SDS011;39546;45.534;12.048;2023-05-10T07:49:39;5.60;;;2.20;;
53642;SDS011;39546;45.534;12.048;2023-05-10T07:55:42;3.12;;;2.50;;
53642;SDS011;39546;45.534;12.048;2023-05-10T08:01:44;7.60;;;3.20;;
53642;SDS011;39546;45.534;12.048;2023-05-10T08:07:46;5.37;;;2.45;;
53642;SDS011;39546;45.534;12.048;2023-05-10T08:13:49;4.65;;;2.65;;
53642;SDS011;39546;45.534;12.048;2023-05-10T08:20:01;4.47;;;3.22;;
53642;SDS011;39546;45.534;12.048;2023-05-10T08:26:03;4.70;;;2.70;;
53642;SDS011;39546;45.534;12.048;2023-05-10T08:32:05;4.78;;;2.87;;
53642;SDS011;39546;45.534;12.048;2023-05-10T08:38:07;4.55;;;3.05;;
53642;SDS011;39546;45.534;12.048;2023-05-10T08:44:09;3.15;;;2.47;;
53642;SDS011;39546;45.534;12.048;2023-05-10T08:56:41;2.92;;;2.22;;
53642;SDS011;39546;45.534;12.048;2023-05-10T09:02:43;5.80;;;3.55;;
53642;SDS011;39546;45.534;12.048;2023-05-10T09:08:48;5.78;;;3.45;;
53642;SDS011;39546;45.534;12.048;2023-05-10T09:14:53;5.37;;;3.35;;
53642;SDS011;39546;45.534;12.048;2023-05-10T09:20:56;5.25;;;4.10;;
53642;SDS011;39546;45.534;12.048;2023-05-10T09:26:59;6.00;;;4.40;;
53642;SDS011;39546;45.534;12.048;2023-05-10T09:33:03;5.32;;;3.85;;
53642;SDS011;39546;45.534;12.048;2023-05-10T09:39:05;6.62;;;5.15;;
53642;SDS011;39546;45.534;12.048;2023-05-10T09:45:07;5.40;;;3.55;;
53642;SDS011;39546;45.534;12.048;2023-05-10T09:51:10;4.12;;;3.03;;
53642;SDS011;39546;45.534;12.048;2023-05-10T09:57:20;11.68;;;5.45;;
53642;SDS011;39546;45.534;12.048;2023-05-10T10:03:23;5.82;;;4.32;;
53642;SDS011;39546;45.534;12.048;2023-05-10T10:09:26;4.97;;;3.78;;
53642;SDS011;39546;45.534;12.048;2023-05-10T10:15:34;8.32;;;5.97;;
53642;SDS011;39546;45.534;12.048;2023-05-10T10:21:37;6.05;;;2.55;;
53642;SDS011;39546;45.534;12.048;2023-05-10T10:34:03;9.18;;;6.82;;
53642;SDS011;39546;45.534;12.048;2023-05-10T10:40:29;6.03;;;4.05;;
53642;SDS011;39546;45.534;12.048;2023-05-10T10:46:33;4.87;;;3.15;;
53642;SDS011;39546;45.534;12.048;2023-05-10T10:58:39;5.65;;;4.28;;
53642;SDS011;39546;45.534;12.048;2023-05-10T11:04:43;5.03;;;3.20;;
53642;SDS011;39546;45.534;12.048;2023-05-10T11:11:06;8.98;;;4.85;;
53642;SDS011;39546;45.534;12.048;2023-05-10T11:17:23;6.12;;;4.10;;
53642;SDS011;39546;45.534;12.048;2023-05-10T11:23:30;5.50;;;4.20;;
53642;SDS011;39546;45.534;12.048;2023-05-10T11:29:33;6.55;;;4.62;;
53642;SDS011;39546;45.534;12.048;2023-05-10T11:35:39;9.98;;;5.22;;
53642;SDS011;39546;45.534;12.048;2023-05-10T11:42:07;7.20;;;5.32;;
53642;SDS011;39546;45.534;12.048;2023-05-10T11:48:13;7.87;;;6.50;;
53642;SDS011;39546;45.534;12.048;2023-05-10T11:54:15;5.18;;;3.45;;
53642;SDS011;39546;45.534;12.048;2023-05-10T12:00:22;7.90;;;6.60;;
53642;SDS011;39546;45.534;12.048;2023-05-10T12:06:26;7.47;;;4.03;;
53642;SDS011;39546;45.534;12.048;2023-05-10T12:12:41;7.57;;;5.15;;
53642;SDS011;39546;45.534;12.048;2023-05-10T12:18:49;7.90;;;6.00;;
53642;SDS011;39546;45.534;12.048;2023-05-10T12:24:52;10.18;;;7.47;;
53642;SDS011;39546;45.534;12.048;2023-05-10T12:31:10;7.32;;;5.37;;
53642;SDS011;39546;45.534;12.048;2023-05-10T12:37:12;6.60;;;4.33;;
53642;SDS011;39546;45.534;12.048;2023-05-10T12:43:15;8.27;;;5.12;;
53642;SDS011;39546;45.534;12.048;2023-05-10T12:49:20;9.13;;;5.65;;
53642;SDS011;39546;45.534;12.048;2023-05-10T12:55:24;7.75;;;4.95;;
53642;SDS011;39546;45.534;12.048;2023-05-10T13:01:26;5.18;;;3.58;;
53642;SDS011;39546;45.534;12.048;2023-05-10T13:13:59;7.63;;;4.80;;
53642;SDS011;39546;45.534;12.048;2023-05-10T13:20:01;11.50;;;9.40;;
53642;SDS011;39546;45.534;12.048;2023-05-10T13:26:05;8.18;;;5.10;;
53642;SDS011;39546;45.534;12.048;2023-05-10T13:32:08;6.62;;;4.40;;
53642;SDS011;39546;45.534;12.048;2023-05-10T13:38:14;7.60;;;5.05;;
53642;SDS011;39546;45.534;12.048;2023-05-10T13:44:19;8.18;;;6.22;;
53642;SDS011;39546;45.534;12.048;2023-05-10T13:50:26;8.05;;;6.25;;
53642;SDS011;39546;45.534;12.048;2023-05-10T13:56:33;10.65;;;7.70;;
53642;SDS011;39546;45.534;12.048;2023-05-10T14:02:35;7.18;;;4.37;;
53642;SDS011;39546;45.534;12.048;2023-05-10T14:08:37;6.82;;;4.95;;
53642;SDS011;39546;45.534;12.048;2023-05-10T14:14:40;6.53;;;5.00;;
53642;SDS011;39546;45.534;12.048;2023-05-10T14:20:42;7.78;;;5.72;;
53642;SDS011;39546;45.534;12.048;2023-05-10T14:26:46;8.65;;;6.53;;
53642;SDS011;39546;45.534;12.048;2023-05-10T14:32:48;8.32;;;6.68;;
53642;SDS011;39546;45.534;12.048;2023-05-10T14:38:50;9.35;;;6.28;;
53642;SDS011;39546;45.534;12.048;2023-05-10T14:44:52;6.32;;;5.40;;
53642;SDS011;39546;45.534;12.048;2023-05-10T14:50:54;7.70;;;6.05;;
53642;SDS011;39546;45.534;12.048;2023-05-10T14:56:57;7.15;;;6.37;;
53642;SDS011;39546;45.534;12.048;2023-05-10T15:03:03;11.30;;;8.73;;
53642;SDS011;39546;45.534;12.048;2023-05-10T15:09:06;7.07;;;5.62;;
53642;SDS011;39546;45.534;12.048;2023-05-10T15:15:13;9.85;;;7.65;;
53642;SDS011;39546;45.534;12.048;2023-05-10T15:21:17;7.62;;;6.20;;
53642;SDS011;39546;45.534;12.048;2023-05-10T15:27:20;10.45;;;8.18;;
53642;SDS011;39546;45.534;12.048;2023-05-10T15:33:22;10.82;;;8.43;;
53642;SDS011;39546;45.534;12.048;2023-05-10T15:39:24;9.02;;;6.80;;
53642;SDS011;39546;45.534;12.048;2023-05-10T15:45:26;12.05;;;9.23;;
53642;SDS011;39546;45.534;12.048;2023-05-10T15:51:29;9.90;;;7.85;;
53642;SDS011;39546;45.534;12.048;2023-05-10T15:57:31;8.10;;;6.87;;
53642;SDS011;39546;45.534;12.048;2023-05-10T16:03:33;11.45;;;9.85;;
53642;SDS011;39546;45.534;12.048;2023-05-10T16:09:35;11.88;;;8.10;;
53642;SDS011;39546;45.534;12.048;2023-05-10T16:15:37;9.52;;;8.48;;
53642;SDS011;39546;45.534;12.048;2023-05-10T16:21:40;11.90;;;9.20;;
53642;SDS011;39546;45.534;12.048;2023-05-10T16:27:46;12.45;;;10.50;;
53642;SDS011;39546;45.534;12.048;2023-05-10T16:33:52;13.38;;;11.98;;
53642;SDS011;39546;45.534;12.048;2023-05-10T16:46:20;10.38;;;8.70;;
53642;SDS011;39546;45.534;12.048;2023-05-10T16:52:22;9.88;;;7.97;;
53642;SDS011;39546;45.534;12.048;2023-05-10T16:58:30;17.50;;;12.35;;
53642;SDS011;39546;45.534;12.048;2023-05-10T17:04:32;11.70;;;9.65;;
53642;SDS011;39546;45.534;12.048;2023-05-10T17:10:34;10.50;;;8.93;;
53642;SDS011;39546;45.534;12.048;2023-05-10T17:16:37;12.15;;;9.52;;
53642;SDS011;39546;45.534;12.048;2023-05-10T17:22:40;12.10;;;9.63;;
53642;SDS011;39546;45.534;12.048;2023-05-10T17:28:42;10.38;;;8.77;;
53642;SDS011;39546;45.534;12.048;2023-05-10T17:35:06;12.15;;;8.88;;
53642;SDS011;39546;45.534;12.048;2023-05-10T17:41:13;10.30;;;8.93;;
53642;SDS011;39546;45.534;12.048;2023-05-10T17:47:16;11.88;;;10.68;;
53642;SDS011;39546;45.534;12.048;2023-05-10T17:53:18;9.27;;;8.25;;
53642;SDS011;39546;45.534;12.048;2023-05-10T17:59:20;9.93;;;8.88;;
53642;SDS011;39546;45.534;12.048;2023-05-10T18:05:22;8.52;;;7.18;;
53642;SDS011;39546;45.534;12.048;2023-05-10T18:11:24;10.13;;;8.57;;
53642;SDS011;39546;45.534;12.048;2023-05-10T18:17:28;11.55;;;10.35;;
53642;SDS011;39546;45.534;12.048;2023-05-10T18:23:34;9.48;;;7.72;;
53642;SDS011;39546;45.534;12.048;2023-05-10T18:29:39;11.75;;;8.70;;
53642;SDS011;39546;45.534;12.048;2023-05-10T18:35:42;10.75;;;9.18;;
53642;SDS011;39546;45.534;12.048;2023-05-10T18:41:46;12.23;;;7.95;;
53642;SDS011;39546;45.534;12.048;2023-05-10T18:47:48;9.30;;;7.65;;
53642;SDS011;39546;45.534;12.048;2023-05-10T18:53:50;11.88;;;10.57;;
53642;SDS011;39546;45.534;12.048;2023-05-10T19:00:07;13.57;;;12.15;;
53642;SDS011;39546;45.534;12.048;2023-05-10T19:06:15;11.23;;;10.00;;
53642;SDS011;39546;45.534;12.048;2023-05-10T19:12:17;11.15;;;9.65;;
53642;SDS011;39546;45.534;12.048;2023-05-10T19:18:20;10.50;;;8.05;;
53642;SDS011;39546;45.534;12.048;2023-05-10T19:24:32;9.10;;;6.93;;
53642;SDS011;39546;45.534;12.048;2023-05-10T19:30:54;7.87;;;6.87;;
53642;SDS011;39546;45.534;12.048;2023-05-10T19:37:06;8.80;;;6.78;;
53642;SDS011;39546;45.534;12.048;2023-05-10T19:43:08;9.48;;;8.13;;
53642;SDS011;39546;45.534;12.048;2023-05-10T19:49:16;9.13;;;7.65;;
53642;SDS011;39546;45.534;12.048;2023-05-10T19:55:29;9.05;;;8.13;;
53642;SDS011;39546;45.534;12.048;2023-05-10T20:01:34;11.15;;;7.80;;
53642;SDS011;39546;45.534;12.048;2023-05-10T20:07:37;7.35;;;6.05;;
53642;SDS011;39546;45.534;12.048;2023-05-10T20:13:39;5.57;;;4.62;;
53642;SDS011;39546;45.534;12.048;2023-05-10T20:19:41;8.02;;;5.75;;
53642;SDS011;39546;45.534;12.048;2023-05-10T20:25:50;7.62;;;5.82;;
53642;SDS011;39546;45.534;12.048;2023-05-10T20:31:53;7.20;;;5.68;;
53642;SDS011;39546;45.534;12.048;2023-05-10T20:37:55;9.63;;;6.07;;
53642;SDS011;39546;45.534;12.048;2023-05-10T20:43:56;9.30;;;6.90;;
53642;SDS011;39546;45.534;12.048;2023-05-10T20:49:59;5.45;;;4.57;;
53642;SDS011;39546;45.534;12.048;2023-05-10T20:56:01;6.00;;;4.87;;
53642;SDS011;39546;45.534;12.048;2023-05-10T21:02:03;7.05;;;4.57;;
53642;SDS011;39546;45.534;12.048;2023-05-10T21:14:47;5.57;;;3.40;;
53642;SDS011;39546;45.534;12.048;2023-05-10T21:20:49;6.12;;;3.50;;
53642;SDS011;39546;45.534;12.048;2023-05-10T21:26:53;6.22;;;4.78;;
53642;SDS011;39546;45.534;12.048;2023-05-10T21:39:22;3.78;;;3.08;;
53642;SDS011;39546;45.534;12.048;2023-05-10T21:45:26;3.83;;;3.15;;
53642;SDS011;39546;45.534;12.048;2023-05-10T21:51:34;6.18;;;4.45;;
53642;SDS011;39546;45.534;12.048;2023-05-10T21:57:41;6.57;;;4.40;;
53642;SDS011;39546;45.534;12.048;2023-05-10T22:03:48;6.00;;;4.82;;
53642;SDS011;39546;45.534;12.048;2023-05-10T22:09:51;6.03;;;3.92;;
53642;SDS011;39546;45.534;12.048;2023-05-10T22:15:53;4.60;;;3.58;;
53642;SDS011;39546;45.534;12.048;2023-05-10T22:21:59;5.53;;;3.62;;
53642;SDS011;39546;45.534;12.048;2023-05-10T22:28:10;4.03;;;3.00;;
53642;SDS011;39546;45.534;12.048;2023-05-10T22:34:14;7.00;;;5.28;;
53642;SDS011;39546;45.534;12.048;2023-05-10T22:40:29;7.15;;;3.80;;
53642;SDS011;39546;45.534;12.048;2023-05-10T22:46:36;4.75;;;3.85;;
53642;SDS011;39546;45.534;12.048;2023-05-10T22:52:40;5.00;;;3.85;;
53642;SDS011;39546;45.534;12.048;2023-05-10T22:58:43;4.74;;;3.82;;
53642;SDS011;39546;45.534;12.048;2023-05-10T23:04:45;11.05;;;3.53;;
53642;SDS011;39546;45.534;12.048;2023-05-10T23:10:47;3.40;;;2.50;;
53642;SDS011;39546;45.534;12.048;2023-05-10T23:16:49;3.22;;;2.65;;
53642;SDS011;39546;45.534;12.048;2023-05-10T23:29:28;3.83;;;2.58;;
53642;SDS011;39546;45.534;12.048;2023-05-10T23:35:30;3.45;;;2.95;;
53642;SDS011;39546;45.534;12.048;2023-05-10T23:41:32;1.98;;;1.73;;
53642;SDS011;39546;45.534;12.048;2023-05-10T23:47:34;1.42;;;1.30;;
53642;SDS011;39546;45.534;12.048;2023-05-10T23:53:36;2.00;;;1.52;;
53642;SDS011;39546;45.534;12.048;2023-05-10T23:59:38;1.98;;;1.60;;
